sensor_id;sensor_type;location;lat;lon;timestamp;temperature;humidity
58469;DHT22;44257;44.804;10.220;2023-04-19T00:00:39;10.60;99.90
58469;DHT22;44257;44.804;10.220;2023-04-19T00:03:06;10.70;99.90
58469;DHT22;44257;44.804;10.220;2023-04-19T00:05:32;10.80;99.90
58469;DHT22;44257;44.804;10.220;2023-04-19T00:07:58;10.90;99.90
58469;DHT22;44257;44.804;10.220;2023-04-19T00:10:25;11.00;99.90
58469;DHT22;44257;44.804;10.220;2023-04-19T00:12:51;11.00;99.90
58469;DHT22;44257;44.804;10.220;2023-04-19T00:15:17;11.10;99.90
58469;DHT22;44257;44.804;10.220;2023-04-19T00:17:43;11.10;99.90
58469;DHT22;44257;44.804;10.220;2023-04-19T00:20:09;11.20;99.90
58469;DHT22;44257;44.804;10.220;2023-04-19T00:22:37;11.20;99.90
58469;DHT22;44257;44.804;10.220;2023-04-19T00:25:04;11.20;99.90
58469;DHT22;44257;44.804;10.220;2023-04-19T00:27:29;11.20;99.90
58469;DHT22;44257;44.804;10.220;2023-04-19T00:29:56;11.20;99.90
58469;DHT22;44257;44.804;10.220;2023-04-19T00:32:24;11.20;99.90
58469;DHT22;44257;44.804;10.220;2023-04-19T00:34:50;11.20;99.90
58469;DHT22;44257;44.804;10.220;2023-04-19T00:37:16;11.10;99.90
58469;DHT22;44257;44.804;10.220;2023-04-19T00:39:42;11.10;99.90
58469;DHT22;44257;44.804;10.220;2023-04-19T00:42:08;11.20;99.90
58469;DHT22;44257;44.804;10.220;2023-04-19T00:44:35;11.20;99.90
58469;DHT22;44257;44.804;10.220;2023-04-19T00:47:01;11.20;99.90
58469;DHT22;44257;44.804;10.220;2023-04-19T00:49:28;11.20;99.90
58469;DHT22;44257;44.804;10.220;2023-04-19T00:51:54;11.20;99.90
58469;DHT22;44257;44.804;10.220;2023-04-19T00:54:20;11.10;99.90
58469;DHT22;44257;44.804;10.220;2023-04-19T00:56:48;11.00;99.90
58469;DHT22;44257;44.804;10.220;2023-04-19T00:59:16;10.90;99.90
58469;DHT22;44257;44.804;10.220;2023-04-19T01:01:43;10.80;99.90
58469;DHT22;44257;44.804;10.220;2023-04-19T01:04:09;10.70;99.90
58469;DHT22;44257;44.804;10.220;2023-04-19T01:06:35;10.60;99.90
58469;DHT22;44257;44.804;10.220;2023-04-19T01:09:03;10.60;99.90
58469;DHT22;44257;44.804;10.220;2023-04-19T01:11:29;10.50;99.90
58469;DHT22;44257;44.804;10.220;2023-04-19T01:13:56;10.40;99.90
58469;DHT22;44257;44.804;10.220;2023-04-19T01:16:26;10.40;99.90
58469;DHT22;44257;44.804;10.220;2023-04-19T01:19:14;10.40;99.90
58469;DHT22;44257;44.804;10.220;2023-04-19T01:21:41;10.30;99.90
58469;DHT22;44257;44.804;10.220;2023-04-19T01:24:08;10.30;99.90
58469;DHT22;44257;44.804;10.220;2023-04-19T01:26:34;10.30;99.90
58469;DHT22;44257;44.804;10.220;2023-04-19T01:29:01;10.30;99.90
58469;DHT22;44257;44.804;10.220;2023-04-19T01:31:27;10.30;99.90
58469;DHT22;44257;44.804;10.220;2023-04-19T01:33:53;10.30;99.90
58469;DHT22;44257;44.804;10.220;2023-04-19T01:36:19;10.20;99.90
58469;DHT22;44257;44.804;10.220;2023-04-19T01:38:46;10.20;99.90
58469;DHT22;44257;44.804;10.220;2023-04-19T01:41:12;10.20;99.90
58469;DHT22;44257;44.804;10.220;2023-04-19T01:43:38;10.10;99.90
58469;DHT22;44257;44.804;10.220;2023-04-19T01:46:04;10.10;99.90
58469;DHT22;44257;44.804;10.220;2023-04-19T01:48:30;10.10;99.90
58469;DHT22;44257;44.804;10.220;2023-04-19T01:50:55;10.00;99.90
58469;DHT22;44257;44.804;10.220;2023-04-19T01:53:21;10.00;99.90
58469;DHT22;44257;44.804;10.220;2023-04-19T01:55:48;10.00;99.90
58469;DHT22;44257;44.804;10.220;2023-04-19T01:58:14;10.00;99.90
58469;DHT22;44257;44.804;10.220;2023-04-19T02:00:40;10.00;99.90
58469;DHT22;44257;44.804;10.220;2023-04-19T02:03:06;10.00;99.90
58469;DHT22;44257;44.804;10.220;2023-04-19T02:05:32;10.00;99.90
58469;DHT22;44257;44.804;10.220;2023-04-19T02:07:58;10.00;99.90
58469;DHT22;44257;44.804;10.220;2023-04-19T02:10:29;10.00;99.90
58469;DHT22;44257;44.804;10.220;2023-04-19T02:12:55;10.00;99.90
58469;DHT22;44257;44.804;10.220;2023-04-19T02:15:21;10.00;99.90
58469;DHT22;44257;44.804;10.220;2023-04-19T02:17:47;10.00;99.90
58469;DHT22;44257;44.804;10.220;2023-04-19T02:20:14;10.00;99.90
58469;DHT22;44257;44.804;10.220;2023-04-19T02:22:40;9.90;99.90
58469;DHT22;44257;44.804;10.220;2023-04-19T02:25:06;9.90;99.90
58469;DHT22;44257;44.804;10.220;2023-04-19T02:27:32;9.80;99.90
58469;DHT22;44257;44.804;10.220;2023-04-19T02:29:57;9.80;99.90
58469;DHT22;44257;44.804;10.220;2023-04-19T02:32:23;9.80;99.90
58469;DHT22;44257;44.804;10.220;2023-04-19T02:34:49;9.70;99.90
58469;DHT22;44257;44.804;10.220;2023-04-19T02:37:15;9.70;99.90
58469;DHT22;44257;44.804;10.220;2023-04-19T02:39:41;9.60;99.90
58469;DHT22;44257;44.804;10.220;2023-04-19T02:42:07;9.60;99.90
58469;DHT22;44257;44.804;10.220;2023-04-19T02:44:33;9.60;99.90
58469;DHT22;44257;44.804;10.220;2023-04-19T02:46:59;9.60;99.90
58469;DHT22;44257;44.804;10.220;2023-04-19T02:49:25;9.60;99.90
58469;DHT22;44257;44.804;10.220;2023-04-19T02:51:51;9.60;99.90
58469;DHT22;44257;44.804;10.220;2023-04-19T02:54:17;9.50;99.90
58469;DHT22;44257;44.804;10.220;2023-04-19T02:56:44;9.50;99.90
58469;DHT22;44257;44.804;10.220;2023-04-19T02:59:10;9.40;99.90
58469;DHT22;44257;44.804;10.220;2023-04-19T03:01:36;9.30;99.90
58469;DHT22;44257;44.804;10.220;2023-04-19T03:04:04;9.20;99.90
58469;DHT22;44257;44.804;10.220;2023-04-19T03:06:30;9.30;99.90
58469;DHT22;44257;44.804;10.220;2023-04-19T03:08:56;9.30;99.90
58469;DHT22;44257;44.804;10.220;2023-04-19T03:11:22;9.30;99.90
58469;DHT22;44257;44.804;10.220;2023-04-19T03:13:48;9.30;99.90
58469;DHT22;44257;44.804;10.220;2023-04-19T03:16:14;9.30;99.90
58469;DHT22;44257;44.804;10.220;2023-04-19T03:18:41;9.20;99.90
58469;DHT22;44257;44.804;10.220;2023-04-19T03:21:07;9.20;99.90
58469;DHT22;44257;44.804;10.220;2023-04-19T03:23:54;9.20;99.90
58469;DHT22;44257;44.804;10.220;2023-04-19T03:26:20;9.20;99.90
58469;DHT22;44257;44.804;10.220;2023-04-19T03:28:49;9.10;99.90
58469;DHT22;44257;44.804;10.220;2023-04-19T03:31:21;9.20;99.90
58469;DHT22;44257;44.804;10.220;2023-04-19T03:33:49;9.20;99.90
58469;DHT22;44257;44.804;10.220;2023-04-19T03:36:16;9.20;99.90
58469;DHT22;44257;44.804;10.220;2023-04-19T03:38:44;9.20;99.90
58469;DHT22;44257;44.804;10.220;2023-04-19T03:41:33;9.20;99.90
58469;DHT22;44257;44.804;10.220;2023-04-19T03:44:09;9.20;99.90
58469;DHT22;44257;44.804;10.220;2023-04-19T03:46:35;9.20;99.90
58469;DHT22;44257;44.804;10.220;2023-04-19T03:49:01;9.10;99.90
58469;DHT22;44257;44.804;10.220;2023-04-19T03:51:28;9.10;99.90
58469;DHT22;44257;44.804;10.220;2023-04-19T03:53:54;9.20;99.90
58469;DHT22;44257;44.804;10.220;2023-04-19T03:56:19;9.10;99.90
58469;DHT22;44257;44.804;10.220;2023-04-19T03:58:46;9.00;99.90
58469;DHT22;44257;44.804;10.220;2023-04-19T04:01:19;9.10;99.90
58469;DHT22;44257;44.804;10.220;2023-04-19T04:03:46;9.00;99.90
58469;DHT22;44257;44.804;10.220;2023-04-19T04:06:14;9.00;99.90
58469;DHT22;44257;44.804;10.220;2023-04-19T04:08:40;9.10;99.90
58469;DHT22;44257;44.804;10.220;2023-04-19T04:11:06;9.10;99.90
58469;DHT22;44257;44.804;10.220;2023-04-19T04:13:31;9.00;99.90
58469;DHT22;44257;44.804;10.220;2023-04-19T04:16:06;9.10;99.90
58469;DHT22;44257;44.804;10.220;2023-04-19T04:18:33;9.00;99.90
58469;DHT22;44257;44.804;10.220;2023-04-19T04:21:01;9.00;99.90
58469;DHT22;44257;44.804;10.220;2023-04-19T04:23:26;9.00;99.90
58469;DHT22;44257;44.804;10.220;2023-04-19T04:25:57;9.00;99.90
58469;DHT22;44257;44.804;10.220;2023-04-19T04:28:35;8.90;99.90
58469;DHT22;44257;44.804;10.220;2023-04-19T04:31:01;8.90;99.90
58469;DHT22;44257;44.804;10.220;2023-04-19T04:33:30;8.90;99.90
58469;DHT22;44257;44.804;10.220;2023-04-19T04:35:58;8.90;99.90
58469;DHT22;44257;44.804;10.220;2023-04-19T04:38:28;9.00;99.90
58469;DHT22;44257;44.804;10.220;2023-04-19T04:40:55;8.90;99.90
58469;DHT22;44257;44.804;10.220;2023-04-19T04:43:22;8.90;99.90
58469;DHT22;44257;44.804;10.220;2023-04-19T04:45:49;8.90;99.90
58469;DHT22;44257;44.804;10.220;2023-04-19T04:48:15;8.90;99.90
58469;DHT22;44257;44.804;10.220;2023-04-19T04:50:41;8.90;99.90
58469;DHT22;44257;44.804;10.220;2023-04-19T04:53:07;8.90;99.90
58469;DHT22;44257;44.804;10.220;2023-04-19T04:55:35;8.90;99.90
58469;DHT22;44257;44.804;10.220;2023-04-19T04:58:01;8.80;99.90
58469;DHT22;44257;44.804;10.220;2023-04-19T05:00:43;8.80;99.90
58469;DHT22;44257;44.804;10.220;2023-04-19T05:03:09;8.80;99.90
58469;DHT22;44257;44.804;10.220;2023-04-19T05:05:40;8.90;99.90
58469;DHT22;44257;44.804;10.220;2023-04-19T05:08:06;8.90;99.90
58469;DHT22;44257;44.804;10.220;2023-04-19T05:10:32;8.90;99.90
58469;DHT22;44257;44.804;10.220;2023-04-19T05:13:00;9.00;99.90
58469;DHT22;44257;44.804;10.220;2023-04-19T05:15:27;9.10;99.90
58469;DHT22;44257;44.804;10.220;2023-04-19T05:17:54;9.20;99.90
58469;DHT22;44257;44.804;10.220;2023-04-19T05:20:21;9.20;99.90
58469;DHT22;44257;44.804;10.220;2023-04-19T05:22:50;9.30;99.90
58469;DHT22;44257;44.804;10.220;2023-04-19T05:25:21;9.40;99.90
58469;DHT22;44257;44.804;10.220;2023-04-19T05:27:47;9.60;99.90
58469;DHT22;44257;44.804;10.220;2023-04-19T05:30:13;9.70;99.90
58469;DHT22;44257;44.804;10.220;2023-04-19T05:32:43;9.90;99.90
58469;DHT22;44257;44.804;10.220;2023-04-19T05:35:11;10.00;99.90
58469;DHT22;44257;44.804;10.220;2023-04-19T05:37:37;10.20;99.90
58469;DHT22;44257;44.804;10.220;2023-04-19T05:40:04;10.30;99.90
58469;DHT22;44257;44.804;10.220;2023-04-19T05:42:30;10.60;99.90
58469;DHT22;44257;44.804;10.220;2023-04-19T05:44:56;10.80;99.90
58469;DHT22;44257;44.804;10.220;2023-04-19T05:47:22;11.10;99.90
58469;DHT22;44257;44.804;10.220;2023-04-19T05:50:14;11.50;99.90
58469;DHT22;44257;44.804;10.220;2023-04-19T05:52:47;12.10;99.90
58469;DHT22;44257;44.804;10.220;2023-04-19T05:55:13;12.70;99.90
58469;DHT22;44257;44.804;10.220;2023-04-19T05:57:42;13.20;99.90
58469;DHT22;44257;44.804;10.220;2023-04-19T06:00:10;13.80;99.90
58469;DHT22;44257;44.804;10.220;2023-04-19T06:02:49;14.20;99.90
58469;DHT22;44257;44.804;10.220;2023-04-19T06:05:15;14.60;99.90
58469;DHT22;44257;44.804;10.220;2023-04-19T06:07:41;15.00;99.90
58469;DHT22;44257;44.804;10.220;2023-04-19T06:10:07;15.30;99.90
58469;DHT22;44257;44.804;10.220;2023-04-19T06:12:33;15.60;99.90
58469;DHT22;44257;44.804;10.220;2023-04-19T06:14:59;15.70;99.90
58469;DHT22;44257;44.804;10.220;2023-04-19T06:17:25;15.90;99.90
58469;DHT22;44257;44.804;10.220;2023-04-19T06:19:51;16.10;99.90
58469;DHT22;44257;44.804;10.220;2023-04-19T06:22:17;16.30;99.90
58469;DHT22;44257;44.804;10.220;2023-04-19T06:24:44;16.40;99.90
58469;DHT22;44257;44.804;10.220;2023-04-19T06:27:14;16.50;99.90
58469;DHT22;44257;44.804;10.220;2023-04-19T06:29:41;16.50;99.90
58469;DHT22;44257;44.804;10.220;2023-04-19T06:32:08;16.40;99.90
58469;DHT22;44257;44.804;10.220;2023-04-19T06:34:34;16.30;99.90
58469;DHT22;44257;44.804;10.220;2023-04-19T06:37:00;16.30;99.90
58469;DHT22;44257;44.804;10.220;2023-04-19T06:39:25;16.20;99.90
58469;DHT22;44257;44.804;10.220;2023-04-19T06:41:52;16.10;99.90
58469;DHT22;44257;44.804;10.220;2023-04-19T06:44:17;16.10;99.90
58469;DHT22;44257;44.804;10.220;2023-04-19T06:46:43;16.20;99.90
58469;DHT22;44257;44.804;10.220;2023-04-19T06:49:09;16.30;99.90
58469;DHT22;44257;44.804;10.220;2023-04-19T06:51:36;16.40;99.90
58469;DHT22;44257;44.804;10.220;2023-04-19T06:54:02;16.40;99.90
58469;DHT22;44257;44.804;10.220;2023-04-19T06:56:47;16.50;99.90
58469;DHT22;44257;44.804;10.220;2023-04-19T06:59:18;16.60;99.90
58469;DHT22;44257;44.804;10.220;2023-04-19T07:01:45;16.80;99.90
58469;DHT22;44257;44.804;10.220;2023-04-19T07:04:11;17.00;99.90
58469;DHT22;44257;44.804;10.220;2023-04-19T07:06:38;17.10;99.90
58469;DHT22;44257;44.804;10.220;2023-04-19T07:09:05;17.10;99.90
58469;DHT22;44257;44.804;10.220;2023-04-19T07:11:31;17.20;99.90
58469;DHT22;44257;44.804;10.220;2023-04-19T07:13:57;17.30;99.90
58469;DHT22;44257;44.804;10.220;2023-04-19T07:16:26;17.40;99.90
58469;DHT22;44257;44.804;10.220;2023-04-19T07:18:52;17.60;99.90
58469;DHT22;44257;44.804;10.220;2023-04-19T07:21:18;17.70;99.90
58469;DHT22;44257;44.804;10.220;2023-04-19T07:23:43;17.90;99.90
58469;DHT22;44257;44.804;10.220;2023-04-19T07:26:09;18.10;99.90
58469;DHT22;44257;44.804;10.220;2023-04-19T07:28:35;18.30;99.90
58469;DHT22;44257;44.804;10.220;2023-04-19T07:31:01;18.50;99.90
58469;DHT22;44257;44.804;10.220;2023-04-19T07:33:27;18.60;99.90
58469;DHT22;44257;44.804;10.220;2023-04-19T07:35:53;18.70;99.90
58469;DHT22;44257;44.804;10.220;2023-04-19T07:38:19;18.80;99.90
58469;DHT22;44257;44.804;10.220;2023-04-19T07:40:45;19.00;99.90
58469;DHT22;44257;44.804;10.220;2023-04-19T07:43:11;19.10;99.90
58469;DHT22;44257;44.804;10.220;2023-04-19T07:45:37;19.30;99.90
58469;DHT22;44257;44.804;10.220;2023-04-19T07:48:03;19.40;99.90
58469;DHT22;44257;44.804;10.220;2023-04-19T07:50:29;19.50;99.90
58469;DHT22;44257;44.804;10.220;2023-04-19T07:52:55;19.60;99.90
58469;DHT22;44257;44.804;10.220;2023-04-19T07:55:21;19.60;99.10
58469;DHT22;44257;44.804;10.220;2023-04-19T07:57:48;19.70;99.90
58469;DHT22;44257;44.804;10.220;2023-04-19T08:00:15;19.90;99.90
58469;DHT22;44257;44.804;10.220;2023-04-19T08:02:46;20.10;99.70
58469;DHT22;44257;44.804;10.220;2023-04-19T08:05:15;20.20;99.00
58469;DHT22;44257;44.804;10.220;2023-04-19T08:07:42;20.30;99.90
58469;DHT22;44257;44.804;10.220;2023-04-19T08:10:09;20.40;99.30
58469;DHT22;44257;44.804;10.220;2023-04-19T08:12:35;20.50;99.30
58469;DHT22;44257;44.804;10.220;2023-04-19T08:15:01;20.60;99.10
58469;DHT22;44257;44.804;10.220;2023-04-19T08:17:27;20.60;99.10
58469;DHT22;44257;44.804;10.220;2023-04-19T08:19:53;20.60;98.40
58469;DHT22;44257;44.804;10.220;2023-04-19T08:22:20;20.60;98.40
58469;DHT22;44257;44.804;10.220;2023-04-19T08:24:48;20.50;98.10
58469;DHT22;44257;44.804;10.220;2023-04-19T08:27:16;20.60;99.70
58469;DHT22;44257;44.804;10.220;2023-04-19T08:29:41;20.70;99.70
58469;DHT22;44257;44.804;10.220;2023-04-19T08:32:07;20.80;99.30
58469;DHT22;44257;44.804;10.220;2023-04-19T08:34:34;20.80;98.80
58469;DHT22;44257;44.804;10.220;2023-04-19T08:37:03;20.90;99.70
58469;DHT22;44257;44.804;10.220;2023-04-19T08:39:30;20.90;98.00
58469;DHT22;44257;44.804;10.220;2023-04-19T08:42:05;20.90;98.00
58469;DHT22;44257;44.804;10.220;2023-04-19T08:44:32;20.90;97.00
58469;DHT22;44257;44.804;10.220;2023-04-19T08:46:58;20.90;97.20
58469;DHT22;44257;44.804;10.220;2023-04-19T08:49:27;20.90;97.70
58469;DHT22;44257;44.804;10.220;2023-04-19T08:51:56;20.90;97.10
58469;DHT22;44257;44.804;10.220;2023-04-19T08:54:22;20.90;97.20
58469;DHT22;44257;44.804;10.220;2023-04-19T08:56:49;20.90;95.70
58469;DHT22;44257;44.804;10.220;2023-04-19T08:59:15;20.90;96.30
58469;DHT22;44257;44.804;10.220;2023-04-19T09:01:40;21.00;98.00
58469;DHT22;44257;44.804;10.220;2023-04-19T09:04:07;21.10;97.60
58469;DHT22;44257;44.804;10.220;2023-04-19T09:06:37;21.10;96.50
58469;DHT22;44257;44.804;10.220;2023-04-19T09:09:26;21.10;95.70
58469;DHT22;44257;44.804;10.220;2023-04-19T09:11:52;21.10;97.80
58469;DHT22;44257;44.804;10.220;2023-04-19T09:14:19;21.20;95.50
58469;DHT22;44257;44.804;10.220;2023-04-19T09:16:46;21.30;95.00
58469;DHT22;44257;44.804;10.220;2023-04-19T09:19:12;21.30;94.60
58469;DHT22;44257;44.804;10.220;2023-04-19T09:21:39;21.30;95.70
58469;DHT22;44257;44.804;10.220;2023-04-19T09:24:05;21.30;95.30
58469;DHT22;44257;44.804;10.220;2023-04-19T09:26:32;21.40;97.00
58469;DHT22;44257;44.804;10.220;2023-04-19T09:28:59;21.60;97.60
58469;DHT22;44257;44.804;10.220;2023-04-19T09:31:34;21.80;97.90
58469;DHT22;44257;44.804;10.220;2023-04-19T09:34:11;22.10;96.40
58469;DHT22;44257;44.804;10.220;2023-04-19T09:36:37;22.10;92.70
58469;DHT22;44257;44.804;10.220;2023-04-19T09:39:03;21.80;93.90
58469;DHT22;44257;44.804;10.220;2023-04-19T09:41:30;21.60;93.30
58469;DHT22;44257;44.804;10.220;2023-04-19T09:44:10;21.60;94.30
58469;DHT22;44257;44.804;10.220;2023-04-19T09:46:37;21.80;94.80
58469;DHT22;44257;44.804;10.220;2023-04-19T09:51:41;22.10;93.30
58469;DHT22;44257;44.804;10.220;2023-04-19T09:54:09;22.20;91.80
58469;DHT22;44257;44.804;10.220;2023-04-19T09:56:36;22.10;91.00
58469;DHT22;44257;44.804;10.220;2023-04-19T09:59:06;22.00;92.50
58469;DHT22;44257;44.804;10.220;2023-04-19T10:01:47;22.00;92.70
58469;DHT22;44257;44.804;10.220;2023-04-19T10:04:14;22.00;93.80
58469;DHT22;44257;44.804;10.220;2023-04-19T10:06:50;22.10;93.80
58469;DHT22;44257;44.804;10.220;2023-04-19T10:09:20;22.30;93.10
58469;DHT22;44257;44.804;10.220;2023-04-19T10:11:51;22.60;93.30
58469;DHT22;44257;44.804;10.220;2023-04-19T10:14:24;22.60;91.60
58469;DHT22;44257;44.804;10.220;2023-04-19T10:16:50;22.60;91.00
58469;DHT22;44257;44.804;10.220;2023-04-19T10:19:21;22.60;91.60
58469;DHT22;44257;44.804;10.220;2023-04-19T10:21:48;22.70;92.00
58469;DHT22;44257;44.804;10.220;2023-04-19T10:24:15;22.80;92.20
58469;DHT22;44257;44.804;10.220;2023-04-19T10:32:22;23.10;91.80
58469;DHT22;44257;44.804;10.220;2023-04-19T10:34:51;23.10;90.40
58469;DHT22;44257;44.804;10.220;2023-04-19T10:37:21;23.10;89.30
58469;DHT22;44257;44.804;10.220;2023-04-19T10:39:47;23.00;90.80
58469;DHT22;44257;44.804;10.220;2023-04-19T10:42:13;23.10;89.00
58469;DHT22;44257;44.804;10.220;2023-04-19T10:44:39;23.10;89.40
58469;DHT22;44257;44.804;10.220;2023-04-19T10:47:05;23.20;89.10
58469;DHT22;44257;44.804;10.220;2023-04-19T10:49:30;23.00;88.30
58469;DHT22;44257;44.804;10.220;2023-04-19T10:51:56;23.00;89.40
58469;DHT22;44257;44.804;10.220;2023-04-19T10:54:32;23.00;90.30
58469;DHT22;44257;44.804;10.220;2023-04-19T10:59:25;23.20;90.00
58469;DHT22;44257;44.804;10.220;2023-04-19T11:01:59;23.30;87.20
58469;DHT22;44257;44.804;10.220;2023-04-19T11:07:05;23.50;90.00
58469;DHT22;44257;44.804;10.220;2023-04-19T11:09:33;23.50;86.10
58469;DHT22;44257;44.804;10.220;2023-04-19T11:12:03;23.60;83.80
58469;DHT22;44257;44.804;10.220;2023-04-19T11:14:33;23.60;86.30
58469;DHT22;44257;44.804;10.220;2023-04-19T11:17:01;23.60;84.30
58469;DHT22;44257;44.804;10.220;2023-04-19T11:19:27;23.60;82.70
58469;DHT22;44257;44.804;10.220;2023-04-19T11:21:57;23.70;85.90
58469;DHT22;44257;44.804;10.220;2023-04-19T11:24:23;23.70;86.20
58469;DHT22;44257;44.804;10.220;2023-04-19T11:26:49;23.80;85.10
58469;DHT22;44257;44.804;10.220;2023-04-19T11:29:14;23.90;88.70
58469;DHT22;44257;44.804;10.220;2023-04-19T11:31:43;24.00;85.00
58469;DHT22;44257;44.804;10.220;2023-04-19T11:34:11;24.10;84.10
58469;DHT22;44257;44.804;10.220;2023-04-19T11:36:47;24.10;77.10
58469;DHT22;44257;44.804;10.220;2023-04-19T11:39:13;24.10;83.00
58469;DHT22;44257;44.804;10.220;2023-04-19T11:41:39;24.10;82.60
58469;DHT22;44257;44.804;10.220;2023-04-19T11:44:17;24.20;80.30
58469;DHT22;44257;44.804;10.220;2023-04-19T11:47:03;24.20;85.00
58469;DHT22;44257;44.804;10.220;2023-04-19T11:49:31;24.30;84.50
58469;DHT22;44257;44.804;10.220;2023-04-19T11:51:59;24.30;80.00
58469;DHT22;44257;44.804;10.220;2023-04-19T11:54:26;24.30;83.70
58469;DHT22;44257;44.804;10.220;2023-04-19T11:56:57;24.40;83.80
58469;DHT22;44257;44.804;10.220;2023-04-19T11:59:23;24.50;84.20
58469;DHT22;44257;44.804;10.220;2023-04-19T12:01:49;24.60;84.60
58469;DHT22;44257;44.804;10.220;2023-04-19T12:04:15;24.60;84.30
58469;DHT22;44257;44.804;10.220;2023-04-19T12:06:41;24.60;83.60
58469;DHT22;44257;44.804;10.220;2023-04-19T12:09:07;24.50;83.30
58469;DHT22;44257;44.804;10.220;2023-04-19T12:11:44;24.60;85.40
58469;DHT22;44257;44.804;10.220;2023-04-19T12:14:12;24.70;79.60
58469;DHT22;44257;44.804;10.220;2023-04-19T12:16:38;24.50;78.10
58469;DHT22;44257;44.804;10.220;2023-04-19T12:19:14;24.20;79.80
58469;DHT22;44257;44.804;10.220;2023-04-19T12:21:40;24.00;80.10
58469;DHT22;44257;44.804;10.220;2023-04-19T12:24:06;23.90;78.90
58469;DHT22;44257;44.804;10.220;2023-04-19T12:26:32;23.90;76.50
58469;DHT22;44257;44.804;10.220;2023-04-19T12:28:59;23.70;76.70
58469;DHT22;44257;44.804;10.220;2023-04-19T12:31:26;23.60;79.20
58469;DHT22;44257;44.804;10.220;2023-04-19T12:33:52;23.70;80.30
58469;DHT22;44257;44.804;10.220;2023-04-19T12:36:18;23.80;80.60
58469;DHT22;44257;44.804;10.220;2023-04-19T12:38:44;23.80;77.00
58469;DHT22;44257;44.804;10.220;2023-04-19T12:41:10;23.80;76.60
58469;DHT22;44257;44.804;10.220;2023-04-19T12:43:36;23.70;75.20
58469;DHT22;44257;44.804;10.220;2023-04-19T12:46:02;23.60;78.00
58469;DHT22;44257;44.804;10.220;2023-04-19T12:48:28;23.60;77.00
58469;DHT22;44257;44.804;10.220;2023-04-19T12:50:54;23.80;78.70
58469;DHT22;44257;44.804;10.220;2023-04-19T12:53:20;24.10;78.50
58469;DHT22;44257;44.804;10.220;2023-04-19T12:55:47;24.30;78.30
58469;DHT22;44257;44.804;10.220;2023-04-19T12:58:17;24.50;71.90
58469;DHT22;44257;44.804;10.220;2023-04-19T13:00:43;24.60;77.10
58469;DHT22;44257;44.804;10.220;2023-04-19T13:03:09;24.70;71.10
58469;DHT22;44257;44.804;10.220;2023-04-19T13:05:37;24.60;71.70
58469;DHT22;44257;44.804;10.220;2023-04-19T13:08:03;24.50;72.70
58469;DHT22;44257;44.804;10.220;2023-04-19T13:10:29;24.50;74.20
58469;DHT22;44257;44.804;10.220;2023-04-19T13:12:55;24.60;77.50
58469;DHT22;44257;44.804;10.220;2023-04-19T13:15:21;24.70;75.30
58469;DHT22;44257;44.804;10.220;2023-04-19T13:17:47;24.70;74.70
58469;DHT22;44257;44.804;10.220;2023-04-19T13:20:13;24.70;76.50
58469;DHT22;44257;44.804;10.220;2023-04-19T13:22:39;24.70;74.70
58469;DHT22;44257;44.804;10.220;2023-04-19T13:25:05;24.80;76.00
58469;DHT22;44257;44.804;10.220;2023-04-19T13:27:31;24.80;71.90
58469;DHT22;44257;44.804;10.220;2023-04-19T13:29:57;24.90;75.60
58469;DHT22;44257;44.804;10.220;2023-04-19T13:32:23;24.90;73.70
58469;DHT22;44257;44.804;10.220;2023-04-19T13:34:49;25.00;73.70
58469;DHT22;44257;44.804;10.220;2023-04-19T13:37:14;25.00;73.40
58469;DHT22;44257;44.804;10.220;2023-04-19T13:39:41;24.90;72.30
58469;DHT22;44257;44.804;10.220;2023-04-19T13:42:07;24.90;70.60
58469;DHT22;44257;44.804;10.220;2023-04-19T13:44:33;24.90;75.20
58469;DHT22;44257;44.804;10.220;2023-04-19T13:46:59;24.90;72.70
58469;DHT22;44257;44.804;10.220;2023-04-19T13:49:25;24.90;70.10
58469;DHT22;44257;44.804;10.220;2023-04-19T13:51:51;24.90;72.90
58469;DHT22;44257;44.804;10.220;2023-04-19T13:54:17;25.00;73.00
58469;DHT22;44257;44.804;10.220;2023-04-19T13:56:43;25.00;71.70
58469;DHT22;44257;44.804;10.220;2023-04-19T13:59:09;25.10;70.50
58469;DHT22;44257;44.804;10.220;2023-04-19T14:01:35;25.10;72.20
58469;DHT22;44257;44.804;10.220;2023-04-19T14:04:03;25.10;72.50
58469;DHT22;44257;44.804;10.220;2023-04-19T14:06:29;25.00;67.10
58469;DHT22;44257;44.804;10.220;2023-04-19T14:08:54;24.90;73.40
58469;DHT22;44257;44.804;10.220;2023-04-19T14:11:21;24.80;72.60
58469;DHT22;44257;44.804;10.220;2023-04-19T14:13:47;24.90;73.40
58469;DHT22;44257;44.804;10.220;2023-04-19T14:16:13;24.90;68.00
58469;DHT22;44257;44.804;10.220;2023-04-19T14:18:40;24.80;69.40
58469;DHT22;44257;44.804;10.220;2023-04-19T14:21:05;24.80;71.30
58469;DHT22;44257;44.804;10.220;2023-04-19T14:23:34;24.80;71.20
58469;DHT22;44257;44.804;10.220;2023-04-19T14:26:00;24.90;72.10
58469;DHT22;44257;44.804;10.220;2023-04-19T14:28:26;25.10;72.00
58469;DHT22;44257;44.804;10.220;2023-04-19T14:30:52;25.20;72.50
58469;DHT22;44257;44.804;10.220;2023-04-19T14:33:18;25.30;70.50
58469;DHT22;44257;44.804;10.220;2023-04-19T14:35:44;25.30;69.60
58469;DHT22;44257;44.804;10.220;2023-04-19T14:38:10;25.40;69.00
58469;DHT22;44257;44.804;10.220;2023-04-19T14:40:35;25.40;70.30
58469;DHT22;44257;44.804;10.220;2023-04-19T14:43:01;25.40;69.10
58469;DHT22;44257;44.804;10.220;2023-04-19T14:45:27;25.40;67.30
58469;DHT22;44257;44.804;10.220;2023-04-19T14:47:53;25.10;65.60
58469;DHT22;44257;44.804;10.220;2023-04-19T14:50:19;24.90;66.20
58469;DHT22;44257;44.804;10.220;2023-04-19T14:52:46;24.70;67.80
58469;DHT22;44257;44.804;10.220;2023-04-19T14:55:12;24.60;71.50
58469;DHT22;44257;44.804;10.220;2023-04-19T14:57:38;24.50;72.50
58469;DHT22;44257;44.804;10.220;2023-04-19T15:00:05;24.40;71.70
58469;DHT22;44257;44.804;10.220;2023-04-19T15:02:31;24.20;73.50
58469;DHT22;44257;44.804;10.220;2023-04-19T15:04:57;24.10;73.30
58469;DHT22;44257;44.804;10.220;2023-04-19T15:07:22;23.90;74.70
58469;DHT22;44257;44.804;10.220;2023-04-19T15:09:48;23.60;76.10
58469;DHT22;44257;44.804;10.220;2023-04-19T15:12:14;23.20;77.90
58469;DHT22;44257;44.804;10.220;2023-04-19T15:14:40;22.70;78.90
58469;DHT22;44257;44.804;10.220;2023-04-19T15:17:06;22.30;80.60
58469;DHT22;44257;44.804;10.220;2023-04-19T15:19:32;21.90;83.60
58469;DHT22;44257;44.804;10.220;2023-04-19T15:21:58;21.60;83.60
58469;DHT22;44257;44.804;10.220;2023-04-19T15:24:23;21.30;83.60
58469;DHT22;44257;44.804;10.220;2023-04-19T15:26:49;21.10;84.40
58469;DHT22;44257;44.804;10.220;2023-04-19T15:29:15;20.80;85.20
58469;DHT22;44257;44.804;10.220;2023-04-19T15:31:41;20.50;85.70
58469;DHT22;44257;44.804;10.220;2023-04-19T15:34:07;20.30;87.30